sensor_id;sensor_type;location;lat;lon;timestamp;pressure;altitude;pressure_sealevel;temperature;humidity
9717;BME280;4897;43.570;27.832;2022-07-05T00:01:29;99029.59;;;20.02;100.00
9717;BME280;4897;43.570;27.832;2022-07-05T00:03:59;99019.97;;;19.99;100.00
9717;BME280;4897;43.570;27.832;2022-07-05T00:06:29;98991.28;;;19.69;100.00
9717;BME280;4897;43.570;27.832;2022-07-05T00:08:57;99022.59;;;19.92;100.00
9717;BME280;4897;43.570;27.832;2022-07-05T00:11:27;99035.09;;;20.08;100.00
9717;BME280;4897;43.570;27.832;2022-07-05T00:13:56;99028.31;;;19.98;100.00
9717;BME280;4897;43.570;27.832;2022-07-05T00:16:27;99011.03;;;19.84;100.00
9717;BME280;4897;43.570;27.832;2022-07-05T00:18:57;99032.69;;;19.99;100.00
9717;BME280;4897;43.570;27.832;2022-07-05T00:21:28;98965.56;;;19.65;100.00
9717;BME280;4897;43.570;27.832;2022-07-05T00:23:58;99040.19;;;19.97;100.00
9717;BME280;4897;43.570;27.832;2022-07-05T00:26:27;99026.88;;;19.80;100.00
9717;BME280;4897;43.570;27.832;2022-07-05T00:29:04;99057.75;;;20.01;100.00
9717;BME280;4897;43.570;27.832;2022-07-05T00:31:37;99049.91;;;20.06;100.00
9717;BME280;4897;43.570;27.832;2022-07-05T00:34:06;99048.41;;;20.03;100.00
9717;BME280;4897;43.570;27.832;2022-07-05T00:36:33;99026.88;;;20.02;100.00
9717;BME280;4897;43.570;27.832;2022-07-05T00:39:08;99054.81;;;20.17;100.00
9717;BME280;4897;43.570;27.832;2022-07-05T00:41:37;99024.50;;;19.92;100.00
9717;BME280;4897;43.570;27.832;2022-07-05T00:44:08;99050.19;;;20.11;100.00
9717;BME280;4897;43.570;27.832;2022-07-05T00:46:43;99066.84;;;20.08;100.00
9717;BME280;4897;43.570;27.832;2022-07-05T00:49:16;99038.41;;;20.04;100.00
9717;BME280;4897;43.570;27.832;2022-07-05T00:51:56;99025.16;;;19.94;100.00
9717;BME280;4897;43.570;27.832;2022-07-05T00:54:23;99051.69;;;19.99;100.00
9717;BME280;4897;43.570;27.832;2022-07-05T00:56:56;99048.31;;;19.97;100.00
9717;BME280;4897;43.570;27.832;2022-07-05T00:59:23;99052.94;;;19.96;100.00
9717;BME280;4897;43.570;27.832;2022-07-05T01:02:00;99010.06;;;19.70;100.00
9717;BME280;4897;43.570;27.832;2022-07-05T01:04:34;99056.63;;;19.74;100.00
9717;BME280;4897;43.570;27.832;2022-07-05T01:07:08;99010.94;;;19.56;100.00
9717;BME280;4897;43.570;27.832;2022-07-05T01:09:40;99031.13;;;19.68;100.00
9717;BME280;4897;43.570;27.832;2022-07-05T01:12:12;99029.25;;;19.69;100.00
9717;BME280;4897;43.570;27.832;2022-07-05T01:14:51;99035.88;;;19.66;100.00
9717;BME280;4897;43.570;27.832;2022-07-05T01:17:20;99010.75;;;19.58;100.00
9717;BME280;4897;43.570;27.832;2022-07-05T01:19:48;99023.53;;;19.64;100.00
9717;BME280;4897;43.570;27.832;2022-07-05T01:22:18;98985.31;;;19.44;100.00
9717;BME280;4897;43.570;27.832;2022-07-05T01:24:50;99019.63;;;19.66;100.00
9717;BME280;4897;43.570;27.832;2022-07-05T01:27:20;99006.09;;;19.52;100.00
9717;BME280;4897;43.570;27.832;2022-07-05T01:29:52;99016.50;;;19.48;100.00
9717;BME280;4897;43.570;27.832;2022-07-05T01:35:45;99028.53;;;19.31;100.00
9717;BME280;4897;43.570;27.832;2022-07-05T01:38:15;99020.97;;;19.41;100.00
9717;BME280;4897;43.570;27.832;2022-07-05T01:40:46;99018.81;;;19.37;100.00
9717;BME280;4897;43.570;27.832;2022-07-05T01:43:17;99029.38;;;19.46;100.00
9717;BME280;4897;43.570;27.832;2022-07-05T01:45:49;99025.63;;;19.47;100.00
9717;BME280;4897;43.570;27.832;2022-07-05T01:48:25;99008.25;;;19.27;100.00
9717;BME280;4897;43.570;27.832;2022-07-05T01:51:03;99026.31;;;19.35;100.00
9717;BME280;4897;43.570;27.832;2022-07-05T01:53:39;99027.41;;;19.26;100.00
9717;BME280;4897;43.570;27.832;2022-07-05T01:56:08;99030.69;;;19.21;100.00
9717;BME280;4897;43.570;27.832;2022-07-05T01:58:35;99030.97;;;19.26;100.00
9717;BME280;4897;43.570;27.832;2022-07-05T02:01:02;99024.66;;;19.34;100.00
9717;BME280;4897;43.570;27.832;2022-07-05T02:03:32;99034.88;;;19.24;100.00
9717;BME280;4897;43.570;27.832;2022-07-05T02:06:04;98997.13;;;19.07;100.00
9717;BME280;4897;43.570;27.832;2022-07-05T02:08:36;99016.00;;;19.30;100.00
9717;BME280;4897;43.570;27.832;2022-07-05T02:11:05;99018.44;;;19.25;100.00
9717;BME280;4897;43.570;27.832;2022-07-05T02:13:40;99034.97;;;19.30;100.00
9717;BME280;4897;43.570;27.832;2022-07-05T02:16:09;99028.91;;;19.28;100.00
9717;BME280;4897;43.570;27.832;2022-07-05T02:18:38;99016.09;;;19.22;100.00
9717;BME280;4897;43.570;27.832;2022-07-05T02:21:13;99001.06;;;19.05;100.00
9717;BME280;4897;43.570;27.832;2022-07-05T02:23:42;99059.56;;;19.29;100.00
9717;BME280;4897;43.570;27.832;2022-07-05T02:26:13;98895.47;;;18.38;100.00
9717;BME280;4897;43.570;27.832;2022-07-05T02:29:04;98870.41;;;17.93;100.00
9717;BME280;4897;43.570;27.832;2022-07-05T02:31:35;99039.66;;;19.36;100.00
9717;BME280;4897;43.570;27.832;2022-07-05T02:34:04;99031.50;;;19.22;100.00
9717;BME280;4897;43.570;27.832;2022-07-05T02:36:33;99026.84;;;19.15;100.00
9717;BME280;4897;43.570;27.832;2022-07-05T02:39:03;99046.34;;;19.34;100.00
9717;BME280;4897;43.570;27.832;2022-07-05T02:41:32;98976.97;;;18.66;100.00
9717;BME280;4897;43.570;27.832;2022-07-05T02:44:07;99030.41;;;19.16;100.00
9717;BME280;4897;43.570;27.832;2022-07-05T02:46:38;98978.47;;;18.83;100.00
9717;BME280;4897;43.570;27.832;2022-07-05T02:49:07;99045.06;;;19.22;100.00
9717;BME280;4897;43.570;27.832;2022-07-05T02:54:28;99017.59;;;19.10;100.00
9717;BME280;4897;43.570;27.832;2022-07-05T02:57:00;98895.75;;;18.29;100.00
9717;BME280;4897;43.570;27.832;2022-07-05T02:59:39;98890.50;;;18.27;100.00
9717;BME280;4897;43.570;27.832;2022-07-05T03:02:13;98995.72;;;18.97;100.00
9717;BME280;4897;43.570;27.832;2022-07-05T03:04:50;98989.09;;;18.85;100.00
9717;BME280;4897;43.570;27.832;2022-07-05T03:07:22;98898.97;;;18.47;100.00
9717;BME280;4897;43.570;27.832;2022-07-05T03:09:49;99040.72;;;19.35;100.00
9717;BME280;4897;43.570;27.832;2022-07-05T03:12:24;99063.59;;;19.47;100.00
9717;BME280;4897;43.570;27.832;2022-07-05T03:15:14;99056.56;;;19.53;100.00
9717;BME280;4897;43.570;27.832;2022-07-05T03:18:04;98924.53;;;18.74;100.00
9717;BME280;4897;43.570;27.832;2022-07-05T03:20:36;99046.97;;;19.50;100.00
9717;BME280;4897;43.570;27.832;2022-07-05T03:23:05;99055.78;;;19.73;100.00
9717;BME280;4897;43.570;27.832;2022-07-05T03:25:32;99064.84;;;19.80;100.00
9717;BME280;4897;43.570;27.832;2022-07-05T03:28:02;99071.56;;;19.84;100.00
9717;BME280;4897;43.570;27.832;2022-07-05T03:30:34;99060.97;;;20.04;100.00
9717;BME280;4897;43.570;27.832;2022-07-05T03:33:03;99015.28;;;19.72;100.00
9717;BME280;4897;43.570;27.832;2022-07-05T03:35:35;99055.19;;;20.14;100.00
9717;BME280;4897;43.570;27.832;2022-07-05T03:38:04;99052.00;;;20.25;100.00
9717;BME280;4897;43.570;27.832;2022-07-05T03:40:36;99050.72;;;20.21;100.00
9717;BME280;4897;43.570;27.832;2022-07-05T03:43:08;99033.84;;;20.25;100.00
9717;BME280;4897;43.570;27.832;2022-07-05T03:45:40;99043.00;;;20.45;100.00
9717;BME280;4897;43.570;27.832;2022-07-05T03:48:22;99011.50;;;20.30;100.00
9717;BME280;4897;43.570;27.832;2022-07-05T03:50:53;99004.69;;;20.34;100.00
9717;BME280;4897;43.570;27.832;2022-07-05T03:53:27;98981.84;;;20.28;100.00
9717;BME280;4897;43.570;27.832;2022-07-05T03:56:04;99050.84;;;20.83;100.00
9717;BME280;4897;43.570;27.832;2022-07-05T03:58:43;98991.19;;;20.47;100.00
9717;BME280;4897;43.570;27.832;2022-07-05T04:01:21;99051.91;;;20.88;100.00
9717;BME280;4897;43.570;27.832;2022-07-05T04:03:51;99062.38;;;21.12;100.00
9717;BME280;4897;43.570;27.832;2022-07-05T04:06:18;99066.00;;;21.19;100.00
9717;BME280;4897;43.570;27.832;2022-07-05T04:08:48;98994.06;;;21.01;100.00
9717;BME280;4897;43.570;27.832;2022-07-05T04:11:40;99095.72;;;21.62;100.00
9717;BME280;4897;43.570;27.832;2022-07-05T04:14:11;99068.31;;;21.70;100.00
9717;BME280;4897;43.570;27.832;2022-07-05T04:16:47;99046.34;;;21.65;100.00
9717;BME280;4897;43.570;27.832;2022-07-05T04:19:16;99080.34;;;21.82;100.00
9717;BME280;4897;43.570;27.832;2022-07-05T04:21:45;99061.94;;;21.84;100.00
9717;BME280;4897;43.570;27.832;2022-07-05T04:24:13;99083.41;;;22.13;100.00
9717;BME280;4897;43.570;27.832;2022-07-05T04:26:43;98921.28;;;21.37;100.00
9717;BME280;4897;43.570;27.832;2022-07-05T04:29:18;99078.41;;;22.36;100.00
9717;BME280;4897;43.570;27.832;2022-07-05T04:31:56;99013.09;;;21.76;100.00
9717;BME280;4897;43.570;27.832;2022-07-05T04:34:34;99028.09;;;22.25;100.00
9717;BME280;4897;43.570;27.832;2022-07-05T04:37:06;99012.81;;;22.38;100.00
9717;BME280;4897;43.570;27.832;2022-07-05T04:39:35;99068.41;;;22.82;100.00
9717;BME280;4897;43.570;27.832;2022-07-05T04:42:05;99017.25;;;22.78;100.00
9717;BME280;4897;43.570;27.832;2022-07-05T04:44:37;99054.13;;;23.13;100.00
9717;BME280;4897;43.570;27.832;2022-07-05T04:47:09;98995.00;;;22.81;100.00
9717;BME280;4897;43.570;27.832;2022-07-05T04:49:39;99032.72;;;23.03;100.00
9717;BME280;4897;43.570;27.832;2022-07-05T04:52:09;99009.22;;;23.09;100.00
9717;BME280;4897;43.570;27.832;2022-07-05T04:54:45;98978.16;;;23.03;100.00
9717;BME280;4897;43.570;27.832;2022-07-05T04:57:36;99043.53;;;23.56;100.00
9717;BME280;4897;43.570;27.832;2022-07-05T05:00:07;99043.84;;;23.79;100.00
9717;BME280;4897;43.570;27.832;2022-07-05T05:02:46;98987.88;;;23.57;100.00
9717;BME280;4897;43.570;27.832;2022-07-05T05:05:23;98972.50;;;23.69;100.00
9717;BME280;4897;43.570;27.832;2022-07-05T05:08:09;98912.94;;;23.53;100.00
9717;BME280;4897;43.570;27.832;2022-07-05T05:10:52;99038.50;;;24.35;100.00
9717;BME280;4897;43.570;27.832;2022-07-05T05:13:29;98976.47;;;24.35;100.00
9717;BME280;4897;43.570;27.832;2022-07-05T05:15:59;99052.22;;;25.09;100.00
9717;BME280;4897;43.570;27.832;2022-07-05T05:18:29;98958.78;;;24.63;100.00
9717;BME280;4897;43.570;27.832;2022-07-05T05:20:58;99073.81;;;25.78;84.41
9717;BME280;4897;43.570;27.832;2022-07-05T05:23:28;99095.59;;;26.39;76.09
9717;BME280;4897;43.570;27.832;2022-07-05T05:26:00;98981.13;;;26.34;70.77
9717;BME280;4897;43.570;27.832;2022-07-05T05:28:32;98973.91;;;27.09;70.89
9717;BME280;4897;43.570;27.832;2022-07-05T05:30:59;98965.22;;;27.63;57.85
9717;BME280;4897;43.570;27.832;2022-07-05T05:33:26;99044.19;;;28.64;55.43
9717;BME280;4897;43.570;27.832;2022-07-05T05:35:57;99040.50;;;28.75;48.66
9717;BME280;4897;43.570;27.832;2022-07-05T05:38:24;99040.34;;;28.65;49.22
9717;BME280;4897;43.570;27.832;2022-07-05T05:40:54;99011.06;;;28.59;49.62
9717;BME280;4897;43.570;27.832;2022-07-05T05:43:30;99026.00;;;28.96;45.56
9717;BME280;4897;43.570;27.832;2022-07-05T05:45:59;99036.50;;;29.33;45.06
9717;BME280;4897;43.570;27.832;2022-07-05T05:48:29;99057.28;;;29.62;43.17
9717;BME280;4897;43.570;27.832;2022-07-05T05:50:57;99030.09;;;29.49;43.62
9717;BME280;4897;43.570;27.832;2022-07-05T05:53:26;99049.81;;;29.41;42.50
9717;BME280;4897;43.570;27.832;2022-07-05T05:55:53;99061.94;;;29.78;43.24
9717;BME280;4897;43.570;27.832;2022-07-05T05:58:22;99060.53;;;29.97;41.46
9717;BME280;4897;43.570;27.832;2022-07-05T06:00:50;99066.25;;;30.12;41.05
9717;BME280;4897;43.570;27.832;2022-07-05T06:03:22;99061.84;;;30.38;40.87
9717;BME280;4897;43.570;27.832;2022-07-05T06:05:49;99056.69;;;31.05;39.83
9717;BME280;4897;43.570;27.832;2022-07-05T06:08:18;99028.16;;;31.36;37.82
9717;BME280;4897;43.570;27.832;2022-07-05T06:10:46;99027.03;;;31.32;37.60
9717;BME280;4897;43.570;27.832;2022-07-05T06:13:16;99062.88;;;31.59;36.53
9717;BME280;4897;43.570;27.832;2022-07-05T06:15:43;99062.97;;;31.32;37.47
9717;BME280;4897;43.570;27.832;2022-07-05T06:18:10;99066.72;;;31.52;37.55
9717;BME280;4897;43.570;27.832;2022-07-05T06:20:40;99061.28;;;31.68;36.48
9717;BME280;4897;43.570;27.832;2022-07-05T06:23:11;99067.72;;;31.83;35.00
9717;BME280;4897;43.570;27.832;2022-07-05T06:25:41;99047.44;;;31.26;33.89
9717;BME280;4897;43.570;27.832;2022-07-05T06:28:10;99083.53;;;31.93;34.77
9717;BME280;4897;43.570;27.832;2022-07-05T06:30:41;98982.88;;;31.37;32.31
9717;BME280;4897;43.570;27.832;2022-07-05T06:33:11;99056.50;;;31.53;33.10
9717;BME280;4897;43.570;27.832;2022-07-05T06:35:44;98969.66;;;30.65;33.78
9717;BME280;4897;43.570;27.832;2022-07-05T06:38:12;98986.66;;;31.21;32.92
9717;BME280;4897;43.570;27.832;2022-07-05T06:40:43;99018.84;;;31.42;33.00
9717;BME280;4897;43.570;27.832;2022-07-05T06:43:12;99008.25;;;30.92;33.16
9717;BME280;4897;43.570;27.832;2022-07-05T06:45:54;98883.91;;;29.82;33.58
9717;BME280;4897;43.570;27.832;2022-07-05T06:48:25;98958.38;;;29.44;35.90
9717;BME280;4897;43.570;27.832;2022-07-05T06:50:55;99088.34;;;29.74;36.44
9717;BME280;4897;43.570;27.832;2022-07-05T06:53:30;99041.34;;;29.26;37.66
9717;BME280;4897;43.570;27.832;2022-07-05T06:56:03;98927.78;;;28.64;38.11
9717;BME280;4897;43.570;27.832;2022-07-05T06:58:31;99075.16;;;29.59;37.82
9717;BME280;4897;43.570;27.832;2022-07-05T07:00:59;99044.13;;;29.47;37.37
9717;BME280;4897;43.570;27.832;2022-07-05T07:03:31;99075.81;;;29.83;37.49
9717;BME280;4897;43.570;27.832;2022-07-05T07:06:03;99031.34;;;29.58;36.48
9717;BME280;4897;43.570;27.832;2022-07-05T07:08:32;99020.00;;;29.76;36.24
9717;BME280;4897;43.570;27.832;2022-07-05T07:11:20;99053.88;;;29.93;36.18
9717;BME280;4897;43.570;27.832;2022-07-05T07:13:49;99025.94;;;29.89;36.58
9717;BME280;4897;43.570;27.832;2022-07-05T07:16:19;99076.69;;;30.32;35.67
9717;BME280;4897;43.570;27.832;2022-07-05T07:18:46;99069.31;;;30.37;35.49
9717;BME280;4897;43.570;27.832;2022-07-05T07:21:16;99046.44;;;30.42;34.76
9717;BME280;4897;43.570;27.832;2022-07-05T07:23:45;99055.50;;;30.37;34.24
9717;BME280;4897;43.570;27.832;2022-07-05T07:26:16;99077.41;;;30.49;34.29
9717;BME280;4897;43.570;27.832;2022-07-05T07:28:49;99056.53;;;30.31;34.85
9717;BME280;4897;43.570;27.832;2022-07-05T07:31:23;99075.66;;;30.64;34.17
9717;BME280;4897;43.570;27.832;2022-07-05T07:33:51;99051.75;;;30.48;34.25
9717;BME280;4897;43.570;27.832;2022-07-05T07:36:20;99076.81;;;30.73;34.27
9717;BME280;4897;43.570;27.832;2022-07-05T07:38:47;99052.47;;;30.65;34.51
9717;BME280;4897;43.570;27.832;2022-07-05T07:41:16;99053.69;;;31.11;32.06
9717;BME280;4897;43.570;27.832;2022-07-05T07:43:47;99035.53;;;31.62;30.67
9717;BME280;4897;43.570;27.832;2022-07-05T07:46:16;98999.88;;;33.18;28.93
9717;BME280;4897;43.570;27.832;2022-07-05T07:48:43;99064.69;;;35.48;27.11
9717;BME280;4897;43.570;27.832;2022-07-05T07:51:10;99067.56;;;36.32;26.34
9717;BME280;4897;43.570;27.832;2022-07-05T07:53:42;99082.94;;;35.59;25.77
9717;BME280;4897;43.570;27.832;2022-07-05T07:56:11;99062.84;;;35.62;24.20
9717;BME280;4897;43.570;27.832;2022-07-05T07:58:38;99081.47;;;35.90;25.06
9717;BME280;4897;43.570;27.832;2022-07-05T08:01:22;99051.84;;;35.99;25.09
9717;BME280;4897;43.570;27.832;2022-07-05T08:03:49;99077.84;;;36.93;24.36
9717;BME280;4897;43.570;27.832;2022-07-05T08:06:17;99045.91;;;37.36;23.61
9717;BME280;4897;43.570;27.832;2022-07-05T08:08:48;99069.69;;;37.74;22.72
9717;BME280;4897;43.570;27.832;2022-07-05T08:11:17;99020.81;;;38.04;22.94
9717;BME280;4897;43.570;27.832;2022-07-05T08:13:44;99052.06;;;37.92;22.19
9717;BME280;4897;43.570;27.832;2022-07-05T08:16:22;99039.03;;;37.28;21.17
9717;BME280;4897;43.570;27.832;2022-07-05T08:18:52;99073.75;;;38.22;21.90
9717;BME280;4897;43.570;27.832;2022-07-05T08:21:36;99086.53;;;39.13;22.05
9717;BME280;4897;43.570;27.832;2022-07-05T08:24:09;99075.25;;;39.88;21.26
9717;BME280;4897;43.570;27.832;2022-07-05T08:26:38;99055.88;;;40.01;20.77
9717;BME280;4897;43.570;27.832;2022-07-05T08:29:12;99089.34;;;40.53;20.79
9717;BME280;4897;43.570;27.832;2022-07-05T08:31:47;99011.34;;;40.47;20.74
9717;BME280;4897;43.570;27.832;2022-07-05T08:34:20;99018.09;;;40.80;20.27
9717;BME280;4897;43.570;27.832;2022-07-05T08:36:59;99094.44;;;41.46;20.78
9717;BME280;4897;43.570;27.832;2022-07-05T08:39:28;99075.81;;;41.41;20.77
9717;BME280;4897;43.570;27.832;2022-07-05T08:41:59;98946.06;;;41.18;19.40
9717;BME280;4897;43.570;27.832;2022-07-05T08:44:38;99071.72;;;41.85;20.03
9717;BME280;4897;43.570;27.832;2022-07-05T08:47:09;99037.19;;;41.12;20.53
9717;BME280;4897;43.570;27.832;2022-07-05T08:49:38;99058.59;;;41.60;20.65
9717;BME280;4897;43.570;27.832;2022-07-05T08:52:11;99047.41;;;41.89;19.14
9717;BME280;4897;43.570;27.832;2022-07-05T08:54:42;99038.06;;;40.87;20.23
9717;BME280;4897;43.570;27.832;2022-07-05T08:57:13;99038.50;;;40.38;20.97
9717;BME280;4897;43.570;27.832;2022-07-05T08:59:40;99061.13;;;40.50;21.01
9717;BME280;4897;43.570;27.832;2022-07-05T09:02:16;99067.97;;;40.10;21.18
9717;BME280;4897;43.570;27.832;2022-07-05T09:04:45;99038.00;;;40.36;21.22
9717;BME280;4897;43.570;27.832;2022-07-05T09:07:15;99063.63;;;41.28;20.51
9717;BME280;4897;43.570;27.832;2022-07-05T09:09:45;99047.94;;;40.93;21.05
9717;BME280;4897;43.570;27.832;2022-07-05T09:12:16;99039.19;;;39.96;21.28
9717;BME280;4897;43.570;27.832;2022-07-05T09:14:44;99068.16;;;40.30;21.50
9717;BME280;4897;43.570;27.832;2022-07-05T09:17:16;99010.91;;;40.14;21.54
9717;BME280;4897;43.570;27.832;2022-07-05T09:22:48;99056.84;;;41.12;21.84
9717;BME280;4897;43.570;27.832;2022-07-05T09:25:27;99040.97;;;41.33;21.52
9717;BME280;4897;43.570;27.832;2022-07-05T09:27:56;99041.53;;;42.11;21.37
9717;BME280;4897;43.570;27.832;2022-07-05T09:30:33;99048.59;;;41.79;21.86
9717;BME280;4897;43.570;27.832;2022-07-05T09:33:08;98927.16;;;39.96;22.57
9717;BME280;4897;43.570;27.832;2022-07-05T09:35:38;98984.09;;;41.54;22.04
9717;BME280;4897;43.570;27.832;2022-07-05T09:38:15;99059.91;;;42.00;22.71
9717;BME280;4897;43.570;27.832;2022-07-05T09:40:46;99040.81;;;42.43;22.15
9717;BME280;4897;43.570;27.832;2022-07-05T09:43:15;99062.63;;;43.08;21.79
9717;BME280;4897;43.570;27.832;2022-07-05T09:45:56;99047.88;;;43.44;21.70
9717;BME280;4897;43.570;27.832;2022-07-05T09:48:29;99035.81;;;44.12;21.29
9717;BME280;4897;43.570;27.832;2022-07-05T09:51:12;99043.06;;;44.13;21.26
9717;BME280;4897;43.570;27.832;2022-07-05T09:53:45;99011.56;;;44.48;20.84
9717;BME280;4897;43.570;27.832;2022-07-05T09:56:12;99018.00;;;44.88;20.26
9717;BME280;4897;43.570;27.832;2022-07-05T09:58:40;99042.56;;;44.60;21.04
9717;BME280;4897;43.570;27.832;2022-07-05T10:01:23;99041.41;;;44.88;20.97
9717;BME280;4897;43.570;27.832;2022-07-05T10:03:58;98991.69;;;44.44;21.61
9717;BME280;4897;43.570;27.832;2022-07-05T10:06:29;98949.09;;;43.61;21.56
9717;BME280;4897;43.570;27.832;2022-07-05T10:08:59;99034.41;;;43.37;22.04
9717;BME280;4897;43.570;27.832;2022-07-05T10:11:28;99007.88;;;43.62;22.14
9717;BME280;4897;43.570;27.832;2022-07-05T10:14:03;99054.19;;;44.34;21.88
9717;BME280;4897;43.570;27.832;2022-07-05T10:16:35;99050.50;;;43.49;21.96
9717;BME280;4897;43.570;27.832;2022-07-05T10:19:08;98975.81;;;41.66;23.14
9717;BME280;4897;43.570;27.832;2022-07-05T10:21:42;99031.91;;;41.83;22.82
9717;BME280;4897;43.570;27.832;2022-07-05T10:24:11;99056.06;;;42.83;22.78
9717;BME280;4897;43.570;27.832;2022-07-05T10:26:40;99037.09;;;44.03;21.77
9717;BME280;4897;43.570;27.832;2022-07-05T10:29:07;99030.81;;;45.13;20.73
9717;BME280;4897;43.570;27.832;2022-07-05T10:31:36;98996.94;;;45.13;20.39
9717;BME280;4897;43.570;27.832;2022-07-05T10:34:06;99027.06;;;45.64;20.40
9717;BME280;4897;43.570;27.832;2022-07-05T10:36:36;99028.25;;;43.92;21.12
9717;BME280;4897;43.570;27.832;2022-07-05T10:39:09;99008.69;;;43.39;21.49
9717;BME280;4897;43.570;27.832;2022-07-05T10:41:37;99044.19;;;42.99;21.48
9717;BME280;4897;43.570;27.832;2022-07-05T10:44:05;99016.84;;;42.66;22.20
9717;BME280;4897;43.570;27.832;2022-07-05T10:46:34;98997.53;;;42.98;21.20
9717;BME280;4897;43.570;27.832;2022-07-05T10:49:14;99027.00;;;43.33;21.31
9717;BME280;4897;43.570;27.832;2022-07-05T10:51:42;99038.16;;;42.47;22.44
9717;BME280;4897;43.570;27.832;2022-07-05T10:54:09;98926.81;;;41.00;22.91
9717;BME280;4897;43.570;27.832;2022-07-05T10:56:36;98990.25;;;42.14;22.45
9717;BME280;4897;43.570;27.832;2022-07-05T10:59:06;99022.41;;;43.28;21.62
9717;BME280;4897;43.570;27.832;2022-07-05T11:01:40;98973.88;;;43.23;21.72
9717;BME280;4897;43.570;27.832;2022-07-05T11:04:28;99016.09;;;42.57;22.11
9717;BME280;4897;43.570;27.832;2022-07-05T11:06:59;98967.31;;;41.83;22.81
9717;BME280;4897;43.570;27.832;2022-07-05T11:09:29;99022.69;;;42.32;22.53
9717;BME280;4897;43.570;27.832;2022-07-05T11:12:05;98994.53;;;42.41;22.92
9717;BME280;4897;43.570;27.832;2022-07-05T11:14:37;98909.06;;;40.36;23.69
9717;BME280;4897;43.570;27.832;2022-07-05T11:17:21;99020.88;;;40.63;23.92
9717;BME280;4897;43.570;27.832;2022-07-05T11:20:17;99008.63;;;41.27;23.50
9717;BME280;4897;43.570;27.832;2022-07-05T11:23:07;99000.41;;;41.22;23.42
9717;BME280;4897;43.570;27.832;2022-07-05T11:25:35;98991.59;;;41.41;23.71
9717;BME280;4897;43.570;27.832;2022-07-05T11:28:20;98993.75;;;42.32;22.77
9717;BME280;4897;43.570;27.832;2022-07-05T11:30:56;99002.22;;;42.52;22.53
9717;BME280;4897;43.570;27.832;2022-07-05T11:33:32;98977.13;;;41.60;23.08
9717;BME280;4897;43.570;27.832;2022-07-05T11:36:01;99003.09;;;42.24;23.37
9717;BME280;4897;43.570;27.832;2022-07-05T11:38:29;99007.34;;;42.91;22.12
9717;BME280;4897;43.570;27.832;2022-07-05T11:41:11;99000.25;;;43.39;21.95
9717;BME280;4897;43.570;27.832;2022-07-05T11:43:38;98997.91;;;42.55;22.50
9717;BME280;4897;43.570;27.832;2022-07-05T11:46:12;98979.88;;;42.06;23.32
9717;BME280;4897;43.570;27.832;2022-07-05T11:48:50;98988.38;;;40.96;23.61
9717;BME280;4897;43.570;27.832;2022-07-05T11:51:19;98987.88;;;41.03;24.22
9717;BME280;4897;43.570;27.832;2022-07-05T11:53:46;98988.00;;;41.15;23.82
9717;BME280;4897;43.570;27.832;2022-07-05T11:56:13;98985.88;;;41.96;23.58
9717;BME280;4897;43.570;27.832;2022-07-05T11:58:40;98991.34;;;42.83;22.71
9717;BME280;4897;43.570;27.832;2022-07-05T12:01:08;98980.00;;;43.82;22.13
9717;BME280;4897;43.570;27.832;2022-07-05T12:03:35;98978.00;;;43.70;22.16
9717;BME280;4897;43.570;27.832;2022-07-05T12:06:14;98999.69;;;44.30;21.94
9717;BME280;4897;43.570;27.832;2022-07-05T12:08:46;98964.22;;;44.41;21.35
9717;BME280;4897;43.570;27.832;2022-07-05T12:11:13;98985.66;;;42.92;22.69
9717;BME280;4897;43.570;27.832;2022-07-05T12:13:58;98927.47;;;42.10;23.31
9717;BME280;4897;43.570;27.832;2022-07-05T12:16:25;98975.75;;;43.07;23.25
9717;BME280;4897;43.570;27.832;2022-07-05T12:18:56;98961.78;;;43.43;22.62
9717;BME280;4897;43.570;27.832;2022-07-05T12:21:26;98976.59;;;43.76;22.39
9717;BME280;4897;43.570;27.832;2022-07-05T12:23:54;98924.94;;;43.72;22.03
9717;BME280;4897;43.570;27.832;2022-07-05T12:26:22;98941.91;;;44.24;21.91
9717;BME280;4897;43.570;27.832;2022-07-05T12:28:49;98952.19;;;44.56;21.52
9717;BME280;4897;43.570;27.832;2022-07-05T12:31:20;98941.44;;;44.62;21.54
9717;BME280;4897;43.570;27.832;2022-07-05T12:33:48;98937.09;;;44.24;21.82
9717;BME280;4897;43.570;27.832;2022-07-05T12:36:16;98968.09;;;41.83;23.58
9717;BME280;4897;43.570;27.832;2022-07-05T12:38:43;98956.13;;;42.24;24.26
9717;BME280;4897;43.570;27.832;2022-07-05T12:41:12;98968.88;;;42.42;23.70
9717;BME280;4897;43.570;27.832;2022-07-05T12:43:54;98945.53;;;42.62;23.49
9717;BME280;4897;43.570;27.832;2022-07-05T12:46:35;98963.78;;;42.77;23.67
9717;BME280;4897;43.570;27.832;2022-07-05T12:49:03;98964.69;;;43.34;23.25
9717;BME280;4897;43.570;27.832;2022-07-05T12:51:34;98957.44;;;43.57;22.70
9717;BME280;4897;43.570;27.832;2022-07-05T12:54:02;98962.59;;;43.55;22.66
9717;BME280;4897;43.570;27.832;2022-07-05T12:56:49;98945.81;;;43.47;22.85
9717;BME280;4897;43.570;27.832;2022-07-05T12:59:34;98963.44;;;43.68;23.49
9717;BME280;4897;43.570;27.832;2022-07-05T13:02:02;98965.22;;;43.73;22.68
9717;BME280;4897;43.570;27.832;2022-07-05T13:04:29;98940.03;;;41.46;24.29
9717;BME280;4897;43.570;27.832;2022-07-05T13:06:57;98965.91;;;41.05;25.25
9717;BME280;4897;43.570;27.832;2022-07-05T13:09:35;98942.09;;;41.28;24.66
9717;BME280;4897;43.570;27.832;2022-07-05T13:12:08;98922.94;;;41.59;24.21
9717;BME280;4897;43.570;27.832;2022-07-05T13:14:37;98935.31;;;41.29;24.83
9717;BME280;4897;43.570;27.832;2022-07-05T13:17:04;98945.34;;;40.15;25.52
9717;BME280;4897;43.570;27.832;2022-07-05T13:19:31;98937.28;;;40.22;25.39
9717;BME280;4897;43.570;27.832;2022-07-05T13:21:58;98952.59;;;40.76;24.69
9717;BME280;4897;43.570;27.832;2022-07-05T13:24:31;98946.38;;;41.63;24.10
9717;BME280;4897;43.570;27.832;2022-07-05T13:26:58;98929.31;;;42.06;23.69
9717;BME280;4897;43.570;27.832;2022-07-05T13:29:27;98944.81;;;42.53;23.51
9717;BME280;4897;43.570;27.832;2022-07-05T13:31:56;98920.00;;;42.14;23.66
9717;BME280;4897;43.570;27.832;2022-07-05T13:34:26;98923.44;;;41.32;24.26
9717;BME280;4897;43.570;27.832;2022-07-05T13:36:54;98880.56;;;40.25;24.90
9717;BME280;4897;43.570;27.832;2022-07-05T13:39:22;98934.59;;;40.94;24.97
9717;BME280;4897;43.570;27.832;2022-07-05T13:41:51;98929.75;;;41.12;24.65